Terminal Aerodrome Forecast
Issued by NWS

Home | Current Version | Previous Version | Text Only | Print | Product List | Glossary On
Versions: 1 2 3 4 5 6 7 8 9 10 11 12 13 14 15 16
784
FTUS46 KLOX 282152 AAA
TAFSBA
TAF AMD
KSBA 282152Z 2822/2918 16007KT P6SM SCT022
     FM290300 VRB03KT P6SM OVC015
     FM290700 10006KT P6SM OVC009
     FM291400 16006KT P6SM OVC010=

USA.gov is the U.S. government's official web portal to all federal, state and local government web resources and services.